Holly Pond, Alabama
Current Conditions -  °F | °C
As of 2:15 PM on Wednesday 28 Jan 2015 (Local Time) from KCMD Reporting Station
Clear Clear  
Wind Chill: 52°   Ceiling: Unl
Heat Index: 52°   Visibility: 10mi
Dew Point: 28°   Wind: 5mph
Humidity: 40%   Direction: 120°ESE
Pressure: 30.25"   Gusts: NA
Location:  34.17°N, 86.62°W
Report Text: KCMD 282015Z AUTO 12004KT 10SM CLR 11/M02 A3025 RMK AO2 T01091022
Loading
Personal Weather Stations






























Interactive Weather Map New forecast layout! Learn more

10-Day Weather Forecast

Advertisements
Track Severe Weather on mobile